sensor_id;sensor_type;location;lat;lon;timestamp;temperature;humidity
1778;DHT22;886;50.082;8.222;2023-06-14T00:01:59;20.20;69.00
1778;DHT22;886;50.082;8.222;2023-06-14T00:04:27;20.30;69.00
1778;DHT22;886;50.082;8.222;2023-06-14T00:06:55;20.20;68.70
1778;DHT22;886;50.082;8.222;2023-06-14T00:09:23;20.30;68.80
1778;DHT22;886;50.082;8.222;2023-06-14T00:11:50;20.10;68.60
1778;DHT22;886;50.082;8.222;2023-06-14T00:14:17;20.00;68.90
1778;DHT22;886;50.082;8.222;2023-06-14T00:16:44;20.00;69.20
1778;DHT22;886;50.082;8.222;2023-06-14T00:19:13;19.90;69.20
1778;DHT22;886;50.082;8.222;2023-06-14T00:21:40;19.90;69.10
1778;DHT22;886;50.082;8.222;2023-06-14T00:24:08;20.00;68.80
1778;DHT22;886;50.082;8.222;2023-06-14T00:26:35;20.00;68.80
1778;DHT22;886;50.082;8.222;2023-06-14T00:29:03;19.80;68.70
1778;DHT22;886;50.082;8.222;2023-06-14T00:31:30;19.80;69.30
1778;DHT22;886;50.082;8.222;2023-06-14T00:33:57;19.70;69.40
1778;DHT22;886;50.082;8.222;2023-06-14T00:36:25;19.70;69.10
1778;DHT22;886;50.082;8.222;2023-06-14T00:38:52;19.80;69.70
1778;DHT22;886;50.082;8.222;2023-06-14T00:41:20;19.80;69.10
1778;DHT22;886;50.082;8.222;2023-06-14T00:43:47;19.80;69.10
1778;DHT22;886;50.082;8.222;2023-06-14T00:46:14;19.80;68.90
1778;DHT22;886;50.082;8.222;2023-06-14T00:48:42;19.70;69.10
1778;DHT22;886;50.082;8.222;2023-06-14T00:51:09;19.60;70.00
1778;DHT22;886;50.082;8.222;2023-06-14T00:53:38;19.60;69.50
1778;DHT22;886;50.082;8.222;2023-06-14T00:56:06;19.50;69.60
1778;DHT22;886;50.082;8.222;2023-06-14T00:58:34;19.60;69.90
1778;DHT22;886;50.082;8.222;2023-06-14T01:01:01;19.60;69.70
1778;DHT22;886;50.082;8.222;2023-06-14T01:03:29;19.60;69.60
1778;DHT22;886;50.082;8.222;2023-06-14T01:06:03;19.50;69.70
1778;DHT22;886;50.082;8.222;2023-06-14T01:09:03;19.40;70.00
1778;DHT22;886;50.082;8.222;2023-06-14T01:11:39;19.40;70.00
1778;DHT22;886;50.082;8.222;2023-06-14T01:14:11;19.40;69.80
1778;DHT22;886;50.082;8.222;2023-06-14T01:16:39;19.40;70.00
1778;DHT22;886;50.082;8.222;2023-06-14T01:19:10;19.40;70.00
1778;DHT22;886;50.082;8.222;2023-06-14T01:21:40;19.30;70.50
1778;DHT22;886;50.082;8.222;2023-06-14T01:24:10;19.30;70.60
1778;DHT22;886;50.082;8.222;2023-06-14T01:26:38;19.40;70.40
1778;DHT22;886;50.082;8.222;2023-06-14T01:29:13;19.50;70.30
1778;DHT22;886;50.082;8.222;2023-06-14T01:31:44;19.40;70.00
1778;DHT22;886;50.082;8.222;2023-06-14T01:34:12;19.30;70.50
1778;DHT22;886;50.082;8.222;2023-06-14T01:36:41;19.20;70.20
1778;DHT22;886;50.082;8.222;2023-06-14T01:39:13;19.20;70.60
1778;DHT22;886;50.082;8.222;2023-06-14T01:41:42;19.20;70.80
1778;DHT22;886;50.082;8.222;2023-06-14T01:44:11;19.20;70.90
1778;DHT22;886;50.082;8.222;2023-06-14T01:46:39;19.20;71.20
1778;DHT22;886;50.082;8.222;2023-06-14T01:49:07;19.20;71.00
1778;DHT22;886;50.082;8.222;2023-06-14T01:51:34;19.10;71.30
1778;DHT22;886;50.082;8.222;2023-06-14T01:54:02;19.10;71.20
1778;DHT22;886;50.082;8.222;2023-06-14T01:56:30;19.10;71.20
1778;DHT22;886;50.082;8.222;2023-06-14T01:58:59;19.00;71.40
1778;DHT22;886;50.082;8.222;2023-06-14T02:01:26;19.00;71.50
1778;DHT22;886;50.082;8.222;2023-06-14T02:03:53;19.00;71.50
1778;DHT22;886;50.082;8.222;2023-06-14T02:06:20;19.00;71.30
1778;DHT22;886;50.082;8.222;2023-06-14T02:08:47;19.10;71.10
1778;DHT22;886;50.082;8.222;2023-06-14T02:11:14;19.00;71.30
1778;DHT22;886;50.082;8.222;2023-06-14T02:13:43;18.90;71.50
1778;DHT22;886;50.082;8.222;2023-06-14T02:16:11;18.70;72.00
1778;DHT22;886;50.082;8.222;2023-06-14T02:18:38;18.60;72.30
1778;DHT22;886;50.082;8.222;2023-06-14T02:21:05;18.60;72.50
1778;DHT22;886;50.082;8.222;2023-06-14T02:23:32;18.60;72.40
1778;DHT22;886;50.082;8.222;2023-06-14T02:26:01;18.70;72.30
1778;DHT22;886;50.082;8.222;2023-06-14T02:28:29;18.80;72.00
1778;DHT22;886;50.082;8.222;2023-06-14T02:30:58;18.70;71.80
1778;DHT22;886;50.082;8.222;2023-06-14T02:33:25;18.50;72.10
1778;DHT22;886;50.082;8.222;2023-06-14T02:35:52;18.50;72.20
1778;DHT22;886;50.082;8.222;2023-06-14T02:38:19;18.50;72.30
1778;DHT22;886;50.082;8.222;2023-06-14T02:40:47;18.50;71.70
1778;DHT22;886;50.082;8.222;2023-06-14T02:43:14;18.40;71.90
1778;DHT22;886;50.082;8.222;2023-06-14T02:45:43;18.50;71.30
1778;DHT22;886;50.082;8.222;2023-06-14T02:48:12;18.40;71.30
1778;DHT22;886;50.082;8.222;2023-06-14T02:50:39;18.20;71.60
1778;DHT22;886;50.082;8.222;2023-06-14T02:53:06;18.10;71.20
1778;DHT22;886;50.082;8.222;2023-06-14T02:55:33;18.00;70.60
1778;DHT22;886;50.082;8.222;2023-06-14T02:58:07;18.00;70.50
1778;DHT22;886;50.082;8.222;2023-06-14T03:00:34;18.00;70.30
1778;DHT22;886;50.082;8.222;2023-06-14T03:03:03;18.00;70.40
1778;DHT22;886;50.082;8.222;2023-06-14T03:05:32;17.90;70.60
1778;DHT22;886;50.082;8.222;2023-06-14T03:07:59;18.10;70.60
1778;DHT22;886;50.082;8.222;2023-06-14T03:10:26;18.10;70.20
1778;DHT22;886;50.082;8.222;2023-06-14T03:12:56;18.20;70.80
1778;DHT22;886;50.082;8.222;2023-06-14T03:15:23;18.20;70.40
1778;DHT22;886;50.082;8.222;2023-06-14T03:17:51;18.20;71.00
1778;DHT22;886;50.082;8.222;2023-06-14T03:20:20;18.10;71.00
1778;DHT22;886;50.082;8.222;2023-06-14T03:22:48;18.00;70.60
1778;DHT22;886;50.082;8.222;2023-06-14T03:25:16;17.90;70.60
1778;DHT22;886;50.082;8.222;2023-06-14T03:27:43;17.90;71.00
1778;DHT22;886;50.082;8.222;2023-06-14T03:30:10;18.10;70.90
1778;DHT22;886;50.082;8.222;2023-06-14T03:32:38;18.10;70.70
1778;DHT22;886;50.082;8.222;2023-06-14T03:35:06;18.00;70.60
1778;DHT22;886;50.082;8.222;2023-06-14T03:37:34;18.00;70.80
1778;DHT22;886;50.082;8.222;2023-06-14T03:40:02;18.10;70.70
1778;DHT22;886;50.082;8.222;2023-06-14T03:42:32;18.20;70.40
1778;DHT22;886;50.082;8.222;2023-06-14T03:44:59;18.20;70.40
1778;DHT22;886;50.082;8.222;2023-06-14T03:47:27;18.20;70.50
1778;DHT22;886;50.082;8.222;2023-06-14T03:49:54;18.00;70.50
1778;DHT22;886;50.082;8.222;2023-06-14T03:52:21;18.20;70.70
1778;DHT22;886;50.082;8.222;2023-06-14T03:54:49;18.30;70.50
1778;DHT22;886;50.082;8.222;2023-06-14T03:57:22;18.30;70.50
1778;DHT22;886;50.082;8.222;2023-06-14T03:59:49;18.10;70.80
1778;DHT22;886;50.082;8.222;2023-06-14T04:02:18;18.00;71.10
1778;DHT22;886;50.082;8.222;2023-06-14T04:04:45;18.10;71.10
1778;DHT22;886;50.082;8.222;2023-06-14T04:07:12;18.00;71.00
1778;DHT22;886;50.082;8.222;2023-06-14T04:09:40;18.00;71.40
1778;DHT22;886;50.082;8.222;2023-06-14T04:12:08;18.00;71.50
1778;DHT22;886;50.082;8.222;2023-06-14T04:14:40;18.10;71.40
1778;DHT22;886;50.082;8.222;2023-06-14T04:17:07;18.10;71.40
1778;DHT22;886;50.082;8.222;2023-06-14T04:19:34;18.00;71.40
1778;DHT22;886;50.082;8.222;2023-06-14T04:22:02;18.00;71.20
1778;DHT22;886;50.082;8.222;2023-06-14T04:24:30;18.10;71.50
1778;DHT22;886;50.082;8.222;2023-06-14T04:26:59;18.20;71.40
1778;DHT22;886;50.082;8.222;2023-06-14T04:29:28;18.00;71.50
1778;DHT22;886;50.082;8.222;2023-06-14T04:31:57;18.00;71.80
1778;DHT22;886;50.082;8.222;2023-06-14T04:34:45;18.00;71.80
1778;DHT22;886;50.082;8.222;2023-06-14T04:37:12;18.00;71.90
1778;DHT22;886;50.082;8.222;2023-06-14T04:39:40;18.00;72.20
1778;DHT22;886;50.082;8.222;2023-06-14T04:42:09;17.80;72.80
1778;DHT22;886;50.082;8.222;2023-06-14T04:44:38;17.70;73.10
1778;DHT22;886;50.082;8.222;2023-06-14T04:47:08;17.80;73.20
1778;DHT22;886;50.082;8.222;2023-06-14T04:49:35;17.90;73.10
1778;DHT22;886;50.082;8.222;2023-06-14T04:52:03;18.00;73.00
1778;DHT22;886;50.082;8.222;2023-06-14T04:54:31;18.00;72.90
1778;DHT22;886;50.082;8.222;2023-06-14T04:57:00;18.00;73.10
1778;DHT22;886;50.082;8.222;2023-06-14T04:59:27;17.90;73.60
1778;DHT22;886;50.082;8.222;2023-06-14T05:01:54;18.00;73.80
1778;DHT22;886;50.082;8.222;2023-06-14T05:04:25;18.00;73.70
1778;DHT22;886;50.082;8.222;2023-06-14T05:06:54;18.20;74.20
1778;DHT22;886;50.082;8.222;2023-06-14T05:09:21;18.30;73.90
1778;DHT22;886;50.082;8.222;2023-06-14T05:11:49;18.40;73.50
1778;DHT22;886;50.082;8.222;2023-06-14T05:14:16;18.50;73.70
1778;DHT22;886;50.082;8.222;2023-06-14T05:16:45;18.50;74.30
1778;DHT22;886;50.082;8.222;2023-06-14T05:19:12;18.60;74.30
1778;DHT22;886;50.082;8.222;2023-06-14T05:21:41;18.80;70.20
1778;DHT22;886;50.082;8.222;2023-06-14T05:24:09;19.00;69.40
1778;DHT22;886;50.082;8.222;2023-06-14T05:26:38;19.10;68.80
1778;DHT22;886;50.082;8.222;2023-06-14T05:29:05;19.20;68.30
1778;DHT22;886;50.082;8.222;2023-06-14T05:31:32;19.30;68.30
1778;DHT22;886;50.082;8.222;2023-06-14T05:33:59;19.40;68.00
1778;DHT22;886;50.082;8.222;2023-06-14T05:36:26;19.40;68.10
1778;DHT22;886;50.082;8.222;2023-06-14T05:38:56;19.50;68.30
1778;DHT22;886;50.082;8.222;2023-06-14T05:41:26;19.50;68.00
1778;DHT22;886;50.082;8.222;2023-06-14T05:43:55;19.60;67.80
1778;DHT22;886;50.082;8.222;2023-06-14T05:46:23;19.60;68.10
1778;DHT22;886;50.082;8.222;2023-06-14T05:48:52;19.60;68.10
1778;DHT22;886;50.082;8.222;2023-06-14T05:51:21;19.70;67.80
1778;DHT22;886;50.082;8.222;2023-06-14T05:53:48;19.70;68.00
1778;DHT22;886;50.082;8.222;2023-06-14T05:56:17;19.80;68.00
1778;DHT22;886;50.082;8.222;2023-06-14T05:58:45;19.80;68.30
1778;DHT22;886;50.082;8.222;2023-06-14T06:01:14;19.80;68.20
1778;DHT22;886;50.082;8.222;2023-06-14T06:03:41;19.80;68.10
1778;DHT22;886;50.082;8.222;2023-06-14T06:06:13;20.00;68.00
1778;DHT22;886;50.082;8.222;2023-06-14T06:08:40;20.20;67.80
1778;DHT22;886;50.082;8.222;2023-06-14T06:11:07;20.60;66.80
1778;DHT22;886;50.082;8.222;2023-06-14T06:13:53;20.90;66.60
1778;DHT22;886;50.082;8.222;2023-06-14T06:16:20;21.50;65.50
1778;DHT22;886;50.082;8.222;2023-06-14T06:18:48;21.70;64.80
1778;DHT22;886;50.082;8.222;2023-06-14T06:21:15;22.00;64.40
1778;DHT22;886;50.082;8.222;2023-06-14T06:23:42;22.50;63.90
1778;DHT22;886;50.082;8.222;2023-06-14T06:26:10;22.70;63.50
1778;DHT22;886;50.082;8.222;2023-06-14T06:28:37;23.10;63.00
1778;DHT22;886;50.082;8.222;2023-06-14T06:31:05;23.20;62.80
1778;DHT22;886;50.082;8.222;2023-06-14T06:33:33;23.30;62.60
1778;DHT22;886;50.082;8.222;2023-06-14T06:36:00;23.20;62.20
1778;DHT22;886;50.082;8.222;2023-06-14T06:38:28;22.90;62.90
1778;DHT22;886;50.082;8.222;2023-06-14T06:40:55;22.60;63.30
1778;DHT22;886;50.082;8.222;2023-06-14T06:43:23;22.20;63.70
1778;DHT22;886;50.082;8.222;2023-06-14T06:45:50;22.20;64.50
1778;DHT22;886;50.082;8.222;2023-06-14T06:48:18;22.10;64.60
1778;DHT22;886;50.082;8.222;2023-06-14T06:50:46;22.10;64.80
1778;DHT22;886;50.082;8.222;2023-06-14T06:53:13;22.10;65.00
1778;DHT22;886;50.082;8.222;2023-06-14T06:55:46;22.20;64.60
1778;DHT22;886;50.082;8.222;2023-06-14T06:58:14;22.40;63.30
1778;DHT22;886;50.082;8.222;2023-06-14T07:00:41;22.60;62.50
1778;DHT22;886;50.082;8.222;2023-06-14T07:03:08;22.90;62.00
1778;DHT22;886;50.082;8.222;2023-06-14T07:05:37;23.50;61.70
1778;DHT22;886;50.082;8.222;2023-06-14T07:08:04;24.00;60.90
1778;DHT22;886;50.082;8.222;2023-06-14T07:10:31;24.60;60.30
1778;DHT22;886;50.082;8.222;2023-06-14T07:12:59;25.20;58.70
1778;DHT22;886;50.082;8.222;2023-06-14T07:15:26;25.70;58.00
1778;DHT22;886;50.082;8.222;2023-06-14T07:17:54;25.90;57.30
1778;DHT22;886;50.082;8.222;2023-06-14T07:20:26;26.10;57.70
1778;DHT22;886;50.082;8.222;2023-06-14T07:22:54;26.30;58.10
1778;DHT22;886;50.082;8.222;2023-06-14T07:25:22;26.30;57.40
1778;DHT22;886;50.082;8.222;2023-06-14T07:27:49;26.40;57.50
1778;DHT22;886;50.082;8.222;2023-06-14T07:30:17;26.10;57.40
1778;DHT22;886;50.082;8.222;2023-06-14T07:32:44;25.90;57.50
1778;DHT22;886;50.082;8.222;2023-06-14T07:35:11;25.60;57.40
1778;DHT22;886;50.082;8.222;2023-06-14T07:37:38;25.10;58.20
1778;DHT22;886;50.082;8.222;2023-06-14T07:40:08;24.70;58.70
1778;DHT22;886;50.082;8.222;2023-06-14T07:42:36;24.40;59.40
1778;DHT22;886;50.082;8.222;2023-06-14T07:45:05;24.20;60.40
1778;DHT22;886;50.082;8.222;2023-06-14T07:47:33;23.90;60.70
1778;DHT22;886;50.082;8.222;2023-06-14T07:50:01;23.80;61.10
1778;DHT22;886;50.082;8.222;2023-06-14T07:55:11;23.50;61.50
1778;DHT22;886;50.082;8.222;2023-06-14T07:57:38;23.40;61.90
1778;DHT22;886;50.082;8.222;2023-06-14T08:00:06;23.30;62.10
1778;DHT22;886;50.082;8.222;2023-06-14T08:02:34;23.30;62.30
1778;DHT22;886;50.082;8.222;2023-06-14T08:05:02;23.20;62.20
1778;DHT22;886;50.082;8.222;2023-06-14T08:07:29;23.30;62.00
1778;DHT22;886;50.082;8.222;2023-06-14T08:09:56;23.20;61.90
1778;DHT22;886;50.082;8.222;2023-06-14T08:12:25;23.30;61.40
1778;DHT22;886;50.082;8.222;2023-06-14T08:14:52;23.30;61.10
1778;DHT22;886;50.082;8.222;2023-06-14T08:17:39;23.30;61.20
1778;DHT22;886;50.082;8.222;2023-06-14T08:20:08;23.50;60.80
1778;DHT22;886;50.082;8.222;2023-06-14T08:22:36;23.50;61.20
1778;DHT22;886;50.082;8.222;2023-06-14T08:25:04;23.60;60.70
1778;DHT22;886;50.082;8.222;2023-06-14T08:27:33;23.70;60.60
1778;DHT22;886;50.082;8.222;2023-06-14T08:30:00;23.70;60.70
1778;DHT22;886;50.082;8.222;2023-06-14T08:32:45;23.80;60.10
1778;DHT22;886;50.082;8.222;2023-06-14T08:35:19;23.90;60.10
1778;DHT22;886;50.082;8.222;2023-06-14T08:37:46;24.10;60.50
1778;DHT22;886;50.082;8.222;2023-06-14T08:40:19;24.10;57.90
1778;DHT22;886;50.082;8.222;2023-06-14T08:42:53;24.30;58.20
1778;DHT22;886;50.082;8.222;2023-06-14T08:45:21;24.40;58.60
1778;DHT22;886;50.082;8.222;2023-06-14T08:47:53;24.30;58.00
1778;DHT22;886;50.082;8.222;2023-06-14T08:50:26;24.20;58.30
1778;DHT22;886;50.082;8.222;2023-06-14T08:53:00;24.00;58.90
1778;DHT22;886;50.082;8.222;2023-06-14T08:55:30;24.00;58.90
1778;DHT22;886;50.082;8.222;2023-06-14T08:58:04;23.70;58.80
1778;DHT22;886;50.082;8.222;2023-06-14T09:00:32;23.60;59.60
1778;DHT22;886;50.082;8.222;2023-06-14T09:03:00;23.60;60.30
1778;DHT22;886;50.082;8.222;2023-06-14T09:05:28;23.50;60.10
1778;DHT22;886;50.082;8.222;2023-06-14T09:07:56;23.50;59.20
1778;DHT22;886;50.082;8.222;2023-06-14T09:10:32;23.70;59.50
1778;DHT22;886;50.082;8.222;2023-06-14T09:13:01;23.90;60.00
1778;DHT22;886;50.082;8.222;2023-06-14T09:15:31;24.10;59.80
1778;DHT22;886;50.082;8.222;2023-06-14T09:18:01;24.20;59.40
1778;DHT22;886;50.082;8.222;2023-06-14T09:20:30;24.60;58.50
1778;DHT22;886;50.082;8.222;2023-06-14T09:22:57;24.80;58.30
1778;DHT22;886;50.082;8.222;2023-06-14T09:25:25;24.70;58.80
1778;DHT22;886;50.082;8.222;2023-06-14T09:28:06;24.90;58.60
1778;DHT22;886;50.082;8.222;2023-06-14T09:30:37;24.70;58.30
1778;DHT22;886;50.082;8.222;2023-06-14T09:33:04;24.80;57.50
1778;DHT22;886;50.082;8.222;2023-06-14T09:35:32;24.70;57.60
1778;DHT22;886;50.082;8.222;2023-06-14T09:37:59;24.30;57.40
1778;DHT22;886;50.082;8.222;2023-06-14T09:40:27;23.80;58.70
1778;DHT22;886;50.082;8.222;2023-06-14T09:42:54;23.70;59.40
1778;DHT22;886;50.082;8.222;2023-06-14T09:45:25;23.60;59.40
1778;DHT22;886;50.082;8.222;2023-06-14T09:47:58;23.50;59.80
1778;DHT22;886;50.082;8.222;2023-06-14T09:50:28;23.40;59.70
1778;DHT22;886;50.082;8.222;2023-06-14T09:52:59;23.20;59.60
1778;DHT22;886;50.082;8.222;2023-06-14T09:55:31;23.00;60.20
1778;DHT22;886;50.082;8.222;2023-06-14T09:58:05;23.00;59.80
1778;DHT22;886;50.082;8.222;2023-06-14T10:00:35;23.10;59.80
1778;DHT22;886;50.082;8.222;2023-06-14T10:03:12;23.20;59.20
1778;DHT22;886;50.082;8.222;2023-06-14T10:05:43;23.20;58.50
1778;DHT22;886;50.082;8.222;2023-06-14T10:08:14;23.20;57.80
1778;DHT22;886;50.082;8.222;2023-06-14T10:10:45;23.30;57.90
1778;DHT22;886;50.082;8.222;2023-06-14T10:13:13;23.30;58.10
1778;DHT22;886;50.082;8.222;2023-06-14T10:15:45;23.30;58.20
1778;DHT22;886;50.082;8.222;2023-06-14T10:18:24;23.30;58.60
1778;DHT22;886;50.082;8.222;2023-06-14T10:21:05;23.40;59.00
1778;DHT22;886;50.082;8.222;2023-06-14T10:23:42;23.40;60.10
1778;DHT22;886;50.082;8.222;2023-06-14T10:26:18;23.50;60.50
1778;DHT22;886;50.082;8.222;2023-06-14T10:28:56;23.50;60.30
1778;DHT22;886;50.082;8.222;2023-06-14T10:31:40;23.40;60.30
1778;DHT22;886;50.082;8.222;2023-06-14T10:34:10;23.30;60.10
1778;DHT22;886;50.082;8.222;2023-06-14T10:36:38;23.40;60.80
1778;DHT22;886;50.082;8.222;2023-06-14T10:39:08;23.40;60.10
1778;DHT22;886;50.082;8.222;2023-06-14T10:41:40;23.30;61.10
1778;DHT22;886;50.082;8.222;2023-06-14T10:44:42;23.30;61.30
1778;DHT22;886;50.082;8.222;2023-06-14T10:47:21;23.30;61.10
1778;DHT22;886;50.082;8.222;2023-06-14T10:49:52;23.30;61.70
1778;DHT22;886;50.082;8.222;2023-06-14T10:52:23;23.30;61.90
1778;DHT22;886;50.082;8.222;2023-06-14T10:55:15;23.30;61.90
1778;DHT22;886;50.082;8.222;2023-06-14T10:57:51;23.40;61.80
1778;DHT22;886;50.082;8.222;2023-06-14T11:00:23;23.30;61.50
1778;DHT22;886;50.082;8.222;2023-06-14T11:06:22;23.30;61.90
1778;DHT22;886;50.082;8.222;2023-06-14T11:12:15;23.30;61.30
1778;DHT22;886;50.082;8.222;2023-06-14T11:14:42;23.30;60.90
1778;DHT22;886;50.082;8.222;2023-06-14T11:17:12;23.50;60.80
1778;DHT22;886;50.082;8.222;2023-06-14T11:19:40;23.60;60.70
1778;DHT22;886;50.082;8.222;2023-06-14T11:22:09;23.60;60.40
1778;DHT22;886;50.082;8.222;2023-06-14T11:24:36;23.60;60.50
1778;DHT22;886;50.082;8.222;2023-06-14T11:27:21;23.60;60.50
1778;DHT22;886;50.082;8.222;2023-06-14T11:29:48;23.50;60.30
1778;DHT22;886;50.082;8.222;2023-06-14T11:32:16;23.40;60.50
1778;DHT22;886;50.082;8.222;2023-06-14T11:34:46;23.30;60.90
1778;DHT22;886;50.082;8.222;2023-06-14T11:37:14;23.20;61.00
1778;DHT22;886;50.082;8.222;2023-06-14T11:39:43;23.10;60.90
1778;DHT22;886;50.082;8.222;2023-06-14T11:42:14;23.20;60.80
1778;DHT22;886;50.082;8.222;2023-06-14T11:44:42;23.40;61.30
1778;DHT22;886;50.082;8.222;2023-06-14T11:47:09;23.40;60.60
1778;DHT22;886;50.082;8.222;2023-06-14T11:49:36;23.50;60.10
1778;DHT22;886;50.082;8.222;2023-06-14T11:52:04;23.60;59.40
1778;DHT22;886;50.082;8.222;2023-06-14T11:54:33;23.60;59.50
1778;DHT22;886;50.082;8.222;2023-06-14T11:57:00;23.60;58.30
1778;DHT22;886;50.082;8.222;2023-06-14T11:59:28;23.70;59.20
1778;DHT22;886;50.082;8.222;2023-06-14T12:01:55;23.70;58.30
1778;DHT22;886;50.082;8.222;2023-06-14T12:04:27;23.70;58.60
1778;DHT22;886;50.082;8.222;2023-06-14T12:06:54;23.90;59.30
1778;DHT22;886;50.082;8.222;2023-06-14T12:09:22;23.90;59.40
1778;DHT22;886;50.082;8.222;2023-06-14T12:12:01;23.80;58.30
1778;DHT22;886;50.082;8.222;2023-06-14T12:14:28;23.80;59.10
1778;DHT22;886;50.082;8.222;2023-06-14T12:17:04;23.70;58.80
1778;DHT22;886;50.082;8.222;2023-06-14T12:19:41;23.70;58.70
1778;DHT22;886;50.082;8.222;2023-06-14T12:22:10;23.70;59.60
1778;DHT22;886;50.082;8.222;2023-06-14T12:24:38;23.60;60.00
1778;DHT22;886;50.082;8.222;2023-06-14T12:27:25;23.60;59.90
1778;DHT22;886;50.082;8.222;2023-06-14T12:29:59;23.70;59.10
1778;DHT22;886;50.082;8.222;2023-06-14T12:32:28;23.80;59.20
1778;DHT22;886;50.082;8.222;2023-06-14T12:34:56;23.90;59.30
1778;DHT22;886;50.082;8.222;2023-06-14T12:37:23;23.90;59.70
1778;DHT22;886;50.082;8.222;2023-06-14T12:39:52;23.90;59.20
1778;DHT22;886;50.082;8.222;2023-06-14T12:42:19;23.90;59.00
1778;DHT22;886;50.082;8.222;2023-06-14T12:44:47;23.80;59.60
1778;DHT22;886;50.082;8.222;2023-06-14T12:47:15;23.80;59.80
1778;DHT22;886;50.082;8.222;2023-06-14T12:49:42;23.80;60.40
1778;DHT22;886;50.082;8.222;2023-06-14T12:52:09;23.70;60.50
1778;DHT22;886;50.082;8.222;2023-06-14T12:54:37;23.70;59.90
1778;DHT22;886;50.082;8.222;2023-06-14T12:57:07;23.80;60.10
1778;DHT22;886;50.082;8.222;2023-06-14T12:59:35;23.80;60.00
1778;DHT22;886;50.082;8.222;2023-06-14T13:02:16;23.90;61.00
1778;DHT22;886;50.082;8.222;2023-06-14T13:04:45;24.00;60.10
1778;DHT22;886;50.082;8.222;2023-06-14T13:07:12;23.90;60.50
1778;DHT22;886;50.082;8.222;2023-06-14T13:09:40;23.90;60.20
1778;DHT22;886;50.082;8.222;2023-06-14T13:12:08;23.80;59.40
1778;DHT22;886;50.082;8.222;2023-06-14T13:14:37;23.80;59.70
1778;DHT22;886;50.082;8.222;2023-06-14T13:17:05;23.70;60.10
1778;DHT22;886;50.082;8.222;2023-06-14T13:19:34;23.60;60.50
1778;DHT22;886;50.082;8.222;2023-06-14T13:22:02;23.80;60.50
1778;DHT22;886;50.082;8.222;2023-06-14T13:24:31;23.90;60.30
1778;DHT22;886;50.082;8.222;2023-06-14T13:26:59;23.90;59.30
1778;DHT22;886;50.082;8.222;2023-06-14T13:29:26;23.90;59.40
1778;DHT22;886;50.082;8.222;2023-06-14T13:31:54;24.00;59.10
1778;DHT22;886;50.082;8.222;2023-06-14T13:34:22;24.10;58.60
1778;DHT22;886;50.082;8.222;2023-06-14T13:36:50;24.10;58.50
1778;DHT22;886;50.082;8.222;2023-06-14T13:39:18;24.10;59.00
1778;DHT22;886;50.082;8.222;2023-06-14T13:41:45;23.90;57.50
1778;DHT22;886;50.082;8.222;2023-06-14T13:44:13;23.90;57.00
1778;DHT22;886;50.082;8.222;2023-06-14T13:46:43;23.90;57.10
1778;DHT22;886;50.082;8.222;2023-06-14T13:49:11;23.90;57.00
1778;DHT22;886;50.082;8.222;2023-06-14T13:51:38;23.90;58.30
1778;DHT22;886;50.082;8.222;2023-06-14T13:56:41;24.00;59.30
1778;DHT22;886;50.082;8.222;2023-06-14T13:59:08;23.90;58.40
1778;DHT22;886;50.082;8.222;2023-06-14T14:01:36;23.80;59.10
1778;DHT22;886;50.082;8.222;2023-06-14T14:04:03;23.80;59.20
1778;DHT22;886;50.082;8.222;2023-06-14T14:06:32;23.70;59.30
1778;DHT22;886;50.082;8.222;2023-06-14T14:08:59;23.70;59.80
1778;DHT22;886;50.082;8.222;2023-06-14T14:11:27;23.80;59.90
1778;DHT22;886;50.082;8.222;2023-06-14T14:13:56;23.80;59.90
1778;DHT22;886;50.082;8.222;2023-06-14T14:16:23;23.90;59.70
1778;DHT22;886;50.082;8.222;2023-06-14T14:18:51;24.00;59.90
1778;DHT22;886;50.082;8.222;2023-06-14T14:21:18;24.00;59.20
1778;DHT22;886;50.082;8.222;2023-06-14T14:23:45;24.00;59.20
1778;DHT22;886;50.082;8.222;2023-06-14T14:26:13;24.00;58.70
1778;DHT22;886;50.082;8.222;2023-06-14T14:28:40;24.10;58.70
1778;DHT22;886;50.082;8.222;2023-06-14T14:31:08;24.10;58.30
1778;DHT22;886;50.082;8.222;2023-06-14T14:33:36;24.20;58.90
1778;DHT22;886;50.082;8.222;2023-06-14T14:36:03;24.30;58.60
1778;DHT22;886;50.082;8.222;2023-06-14T14:38:32;24.30;58.00
1778;DHT22;886;50.082;8.222;2023-06-14T14:41:17;24.30;58.30
1778;DHT22;886;50.082;8.222;2023-06-14T14:43:44;24.40;58.10
1778;DHT22;886;50.082;8.222;2023-06-14T14:46:13;24.50;58.10
1778;DHT22;886;50.082;8.222;2023-06-14T14:48:40;24.40;57.00
1778;DHT22;886;50.082;8.222;2023-06-14T14:51:07;24.30;57.10
1778;DHT22;886;50.082;8.222;2023-06-14T14:53:34;24.20;57.30
1778;DHT22;886;50.082;8.222;2023-06-14T14:56:01;24.10;57.40
1778;DHT22;886;50.082;8.222;2023-06-14T14:58:32;24.10;57.50
1778;DHT22;886;50.082;8.222;2023-06-14T15:00:59;24.20;57.60
1778;DHT22;886;50.082;8.222;2023-06-14T15:03:28;24.30;57.60
1778;DHT22;886;50.082;8.222;2023-06-14T15:05:55;24.30;58.00
1778;DHT22;886;50.082;8.222;2023-06-14T15:08:22;24.40;57.90
1778;DHT22;886;50.082;8.222;2023-06-14T15:10:49;24.40;57.60
1778;DHT22;886;50.082;8.222;2023-06-14T15:13:16;24.50;58.20
1778;DHT22;886;50.082;8.222;2023-06-14T15:15:43;24.40;59.10
1778;DHT22;886;50.082;8.222;2023-06-14T15:18:10;24.40;58.80
1778;DHT22;886;50.082;8.222;2023-06-14T15:20:39;24.40;58.30
1778;DHT22;886;50.082;8.222;2023-06-14T15:23:07;24.30;58.00
1778;DHT22;886;50.082;8.222;2023-06-14T15:25:35;24.30;57.90
1778;DHT22;886;50.082;8.222;2023-06-14T15:28:02;24.30;57.90
1778;DHT22;886;50.082;8.222;2023-06-14T15:30:33;24.30;57.80
1778;DHT22;886;50.082;8.222;2023-06-14T15:33:01;24.30;58.40
1778;DHT22;886;50.082;8.222;2023-06-14T15:35:28;24.30;58.10
1778;DHT22;886;50.082;8.222;2023-06-14T15:37:56;24.30;58.00
1778;DHT22;886;50.082;8.222;2023-06-14T15:40:24;24.30;57.80
1778;DHT22;886;50.082;8.222;2023-06-14T15:42:51;24.30;57.60
1778;DHT22;886;50.082;8.222;2023-06-14T15:45:18;24.30;57.30
1778;DHT22;886;50.082;8.222;2023-06-14T15:47:45;24.30;57.80
1778;DHT22;886;50.082;8.222;2023-06-14T15:50:12;24.30;58.00
1778;DHT22;886;50.082;8.222;2023-06-14T15:52:39;24.30;57.70
1778;DHT22;886;50.082;8.222;2023-06-14T15:55:08;24.40;57.60
1778;DHT22;886;50.082;8.222;2023-06-14T15:57:36;24.40;57.60
1778;DHT22;886;50.082;8.222;2023-06-14T16:00:04;24.40;56.50
1778;DHT22;886;50.082;8.222;2023-06-14T16:02:32;24.40;57.00
1778;DHT22;886;50.082;8.222;2023-06-14T16:04:59;24.40;57.50
1778;DHT22;886;50.082;8.222;2023-06-14T16:07:27;24.30;57.80
1778;DHT22;886;50.082;8.222;2023-06-14T16:09:54;24.30;58.00
1778;DHT22;886;50.082;8.222;2023-06-14T16:12:23;24.20;58.00
1778;DHT22;886;50.082;8.222;2023-06-14T16:14:50;24.20;58.90
1778;DHT22;886;50.082;8.222;2023-06-14T16:17:17;24.10;58.70
1778;DHT22;886;50.082;8.222;2023-06-14T16:19:44;24.10;58.50
1778;DHT22;886;50.082;8.222;2023-06-14T16:22:11;24.10;58.00
1778;DHT22;886;50.082;8.222;2023-06-14T16:24:38;24.00;57.90
1778;DHT22;886;50.082;8.222;2023-06-14T16:27:06;24.10;57.90
1778;DHT22;886;50.082;8.222;2023-06-14T16:29:37;24.10;57.90
1778;DHT22;886;50.082;8.222;2023-06-14T16:32:04;24.10;57.90
1778;DHT22;886;50.082;8.222;2023-06-14T16:34:32;24.20;58.70
1778;DHT22;886;50.082;8.222;2023-06-14T16:37:01;24.20;58.80
1778;DHT22;886;50.082;8.222;2023-06-14T16:39:29;24.20;58.80
1778;DHT22;886;50.082;8.222;2023-06-14T16:42:14;24.30;58.40